SBSM/RIA METAR and TAF weather

Enter ICAO airport designator
Station Type Date Time Source
SBSM METAR 2021/10/24 22:00 UTC NOAA

SBSM 242200Z VRB02KT CAVOK 20/09 Q1017


Station Type Date Time Source
SBSM Decoded METAR 2021/10/24 22:00 UTC NOAA

Santa Maria Aero-Porto , Brazil (SBSM) 29-43S 053-42W
Oct 24, 2021 - 06:00 PM EDT / 2021.10.24 2200 UTC
Wind: Variable at 2 MPH (2 KT):0
Visibility: greater than 7 mile(s):0
Temperature: 68 F (20 C)
Dew Point: 48 F (9 C)
Relative Humidity: 49%
Pressure (altimeter): 30.03 in. Hg (1017 hPa)
ob: SBSM 242200Z VRB02KT CAVOK 20/09 Q1017
cycle: 22

Station Type Date Time Source
SBSM TAF 2021/10/23 06:27 UTC NOAA

TAF SBSM 230300Z 2306/2318 11008KT CAVOK TN13/2306Z TX22/2315Z
BECMG 2310/2312 35007KT 9999 SCT020
BECMG 2312/2314 BKN020
BECMG 2314/2316 06008KT 8000 BKN015 BKN025 FEW045TCU
BECMG 2316/2318 02007KT 2000 TSRA BKN010 BKN020 FEW045CB
RMK PEG

Example: see airport list